createdAt,value
2023-03-12T00:04:54.117Z,1005.28
2023-03-12T00:05:54.105Z,1005.26
2023-03-12T00:06:54.092Z,1005.31
2023-03-12T00:07:54.086Z,1005.27
2023-03-12T00:08:56.284Z,1005.26
2023-03-12T00:09:54.063Z,1005.24
2023-03-12T00:13:54.019Z,1005.25
2023-03-12T00:14:54.008Z,1005.28
2023-03-12T00:15:54.084Z,1005.27
2023-03-12T00:16:53.987Z,1005.23
2023-03-12T00:17:54.029Z,1005.25
2023-03-12T00:18:53.972Z,1005.24
2023-03-12T00:19:53.968Z,1005.26
2023-03-12T00:20:53.944Z,1005.25
2023-03-12T00:21:53.940Z,1005.22
2023-03-12T00:22:53.923Z,1005.22
2023-03-12T00:24:53.901Z,1005.21
2023-03-12T00:25:53.902Z,1005.24
2023-03-12T00:26:53.880Z,1005.23
2023-03-12T00:27:53.874Z,1005.21
2023-03-12T00:28:53.969Z,1005.21
2023-03-12T00:29:53.867Z,1005.14
2023-03-12T00:30:56.068Z,1005.17
2023-03-12T00:31:53.824Z,1005.14
2023-03-12T00:32:53.864Z,1005.09
2023-03-12T00:34:53.798Z,1005.08
2023-03-12T00:35:53.924Z,1005.05
2023-03-12T00:36:53.770Z,1005.02
2023-03-12T00:37:53.762Z,1005.06
2023-03-12T00:41:53.718Z,1005.01
2023-03-12T00:45:53.677Z,1004.91
2023-03-12T00:48:53.646Z,1004.92
2023-03-12T00:50:53.620Z,1004.93
2023-03-12T00:51:53.608Z,1004.87
2023-03-12T00:52:53.597Z,1004.89
2023-03-12T00:53:53.588Z,1004.84
2023-03-12T00:54:53.577Z,1004.82
2023-03-12T00:55:53.573Z,1004.78
2023-03-12T00:56:53.563Z,1004.84
2023-03-12T00:57:53.545Z,1004.80
2023-03-12T00:58:53.534Z,1004.80
2023-03-12T00:59:53.528Z,1004.83
2023-03-12T01:00:53.597Z,1004.81
2023-03-12T01:01:53.508Z,1004.79
2023-03-12T01:02:53.498Z,1004.81
2023-03-12T01:03:53.604Z,1004.77
2023-03-12T01:05:53.486Z,1004.82
2023-03-12T01:06:53.450Z,1004.78
2023-03-12T01:07:53.453Z,1004.80
2023-03-12T01:08:53.429Z,1004.80
2023-03-12T01:09:53.419Z,1004.80
2023-03-12T01:10:53.408Z,1004.78
2023-03-12T01:12:53.388Z,1004.81
2023-03-12T01:13:53.381Z,1004.76
2023-03-12T01:14:53.373Z,1004.74
2023-03-12T01:15:53.361Z,1004.74
2023-03-12T01:16:53.456Z,1004.71
2023-03-12T01:17:53.335Z,1004.75
2023-03-12T01:18:53.324Z,1004.70
2023-03-12T01:19:53.315Z,1004.75
2023-03-12T01:20:53.323Z,1004.71
2023-03-12T01:21:53.314Z,1004.73
2023-03-12T01:22:53.286Z,1004.75
2023-03-12T01:23:53.272Z,1004.73
2023-03-12T01:24:53.259Z,1004.69
2023-03-12T01:25:53.253Z,1004.75
2023-03-12T01:26:53.241Z,1004.71
2023-03-12T01:27:53.231Z,1004.72
2023-03-12T01:28:53.218Z,1004.70
2023-03-12T01:29:53.209Z,1004.72
2023-03-12T01:30:53.204Z,1004.74
2023-03-12T01:31:53.226Z,1004.72
2023-03-12T01:32:53.244Z,1004.69
2023-03-12T01:35:53.357Z,1004.62
2023-03-12T01:38:53.114Z,1004.56
2023-03-12T01:40:53.087Z,1004.50
2023-03-12T01:41:53.079Z,1004.53
2023-03-12T01:42:53.064Z,1004.50
2023-03-12T01:43:53.056Z,1004.48
2023-03-12T01:44:53.051Z,1004.46
2023-03-12T01:45:53.099Z,1004.49
2023-03-12T01:47:53.014Z,1004.47
2023-03-12T01:48:53.004Z,1004.41
2023-03-12T01:50:52.983Z,1004.44
2023-03-12T01:51:52.978Z,1004.39
2023-03-12T01:52:52.956Z,1004.41
2023-03-12T01:54:52.939Z,1004.35
2023-03-12T01:55:52.938Z,1004.37
2023-03-12T01:56:52.917Z,1004.32
2023-03-12T01:57:52.921Z,1004.35
2023-03-12T01:58:52.907Z,1004.34
2023-03-12T01:59:52.887Z,1004.32
2023-03-12T02:00:52.930Z,1004.34
2023-03-12T02:01:52.869Z,1004.30
2023-03-12T02:02:52.855Z,1004.27
2023-03-12T02:03:52.852Z,1004.24
2023-03-12T02:04:52.854Z,1004.25
2023-03-12T02:05:52.816Z,1004.23
2023-03-12T02:06:52.809Z,1004.26
2023-03-12T02:07:52.799Z,1004.28
2023-03-12T02:08:52.784Z,1004.29
2023-03-12T02:09:52.796Z,1004.26
2023-03-12T02:10:52.759Z,1004.23
2023-03-12T02:11:52.756Z,1004.17
2023-03-12T02:12:52.744Z,1004.20
2023-03-12T02:13:52.740Z,1004.18
2023-03-12T02:14:52.723Z,1004.20
2023-03-12T02:15:52.717Z,1004.18
2023-03-12T02:16:52.731Z,1004.13
2023-03-12T02:17:52.693Z,1004.12
2023-03-12T02:20:52.655Z,1004.07
2023-03-12T02:21:52.648Z,1004.07
2023-03-12T02:22:52.648Z,1004.07
2023-03-12T02:23:52.628Z,1004.11
2023-03-12T02:24:52.612Z,1004.13
2023-03-12T02:25:52.624Z,1004.15
2023-03-12T02:26:52.593Z,1004.14
2023-03-12T02:27:52.583Z,1004.16
2023-03-12T02:31:52.568Z,1003.97
2023-03-12T02:32:52.594Z,1003.94
2023-03-12T02:33:52.519Z,1003.91
2023-03-12T02:34:52.559Z,1003.95
2023-03-12T02:35:52.543Z,1003.90
2023-03-12T02:36:52.489Z,1003.90
2023-03-12T02:38:52.462Z,1003.93
2023-03-12T02:39:52.485Z,1003.94
2023-03-12T02:40:52.441Z,1003.94
2023-03-12T02:41:52.452Z,1003.92
2023-03-12T02:42:52.441Z,1003.96
2023-03-12T02:43:52.411Z,1003.97
2023-03-12T02:45:52.416Z,1003.96
2023-03-12T02:47:52.381Z,1003.94
2023-03-12T02:48:52.360Z,1003.98
2023-03-12T02:49:52.351Z,1003.95
2023-03-12T02:50:52.342Z,1003.88
2023-03-12T02:51:52.328Z,1003.93
2023-03-12T02:52:52.314Z,1003.88
2023-03-12T02:53:52.308Z,1003.89
2023-03-12T02:55:52.303Z,1003.87
2023-03-12T02:56:52.304Z,1003.86
2023-03-12T02:57:52.286Z,1003.87
2023-03-12T02:58:52.251Z,1003.87
2023-03-12T03:00:52.232Z,1003.85
2023-03-12T03:04:52.190Z,1003.75
2023-03-12T03:05:52.181Z,1003.69
2023-03-12T03:06:52.171Z,1003.70
2023-03-12T03:08:52.155Z,1003.70
2023-03-12T03:09:52.133Z,1003.62
2023-03-12T03:10:52.121Z,1003.62
2023-03-12T03:11:52.115Z,1003.66
2023-03-12T03:12:52.102Z,1003.67
2023-03-12T03:13:52.119Z,1003.66
2023-03-12T03:14:52.082Z,1003.69
2023-03-12T03:15:52.185Z,1003.71
2023-03-12T03:16:52.076Z,1003.68
2023-03-12T03:17:52.079Z,1003.68
2023-03-12T03:18:52.063Z,1003.61
2023-03-12T03:19:52.035Z,1003.59
2023-03-12T03:20:52.017Z,1003.58
2023-03-12T03:21:52.010Z,1003.57
2023-03-12T03:22:51.999Z,1003.58
2023-03-12T03:23:51.987Z,1003.55
2023-03-12T03:24:51.974Z,1003.53
2023-03-12T03:25:51.968Z,1003.53
2023-03-12T03:27:51.944Z,1003.54
2023-03-12T03:28:51.955Z,1003.48
2023-03-12T03:29:51.941Z,1003.51
2023-03-12T03:38:51.828Z,1003.45
2023-03-12T03:39:51.816Z,1003.49
2023-03-12T03:40:51.811Z,1003.49
2023-03-12T03:43:51.777Z,1003.40
2023-03-12T03:44:51.758Z,1003.42
2023-03-12T03:45:51.802Z,1003.48
2023-03-12T03:46:51.735Z,1003.45
2023-03-12T03:47:51.728Z,1003.45
2023-03-12T03:48:51.715Z,1003.43
2023-03-12T03:49:51.713Z,1003.42
2023-03-12T03:50:51.709Z,1003.36
2023-03-12T03:51:51.748Z,1003.37
2023-03-12T03:52:51.675Z,1003.35
2023-03-12T03:53:51.662Z,1003.34
2023-03-12T03:54:51.651Z,1003.39
2023-03-12T03:55:51.646Z,1003.37
2023-03-12T03:56:51.629Z,1003.39
2023-03-12T03:57:51.626Z,1003.36
2023-03-12T03:58:51.611Z,1003.39
2023-03-12T03:59:51.598Z,1003.38
2023-03-12T04:00:51.588Z,1003.30
2023-03-12T04:01:51.602Z,1003.35
2023-03-12T04:02:51.565Z,1003.34
2023-03-12T04:13:51.453Z,1003.22
2023-03-12T04:14:51.435Z,1003.18
2023-03-12T04:15:51.450Z,1003.19
2023-03-12T04:16:51.413Z,1003.18
2023-03-12T04:17:51.549Z,1003.20
2023-03-12T04:18:51.398Z,1003.20
2023-03-12T04:19:51.389Z,1003.24
2023-03-12T04:20:51.376Z,1003.21
2023-03-12T04:21:51.361Z,1003.25
2023-03-12T04:22:51.349Z,1003.21
2023-03-12T04:23:51.351Z,1003.20
2023-03-12T04:24:51.327Z,1003.20
2023-03-12T04:25:51.320Z,1003.18
2023-03-12T04:26:51.306Z,1003.21
2023-03-12T04:27:51.296Z,1003.16
2023-03-12T04:28:51.286Z,1003.14
2023-03-12T04:29:51.290Z,1003.12
2023-03-12T04:30:51.265Z,1003.11
2023-03-12T04:31:51.253Z,1003.12
2023-03-12T04:32:51.364Z,1003.07
2023-03-12T04:33:51.251Z,1003.05
2023-03-12T04:35:51.255Z,1003.02
2023-03-12T04:36:51.200Z,1003.03
2023-03-12T04:37:51.189Z,1003.03
2023-03-12T04:38:51.181Z,1003.02
2023-03-12T04:39:51.171Z,1002.95
2023-03-12T04:40:51.160Z,1002.91
2023-03-12T04:41:51.147Z,1002.94
2023-03-12T04:42:51.137Z,1002.95
2023-03-12T04:43:51.125Z,1002.95
2023-03-12T04:47:51.086Z,1003.05
2023-03-12T04:49:51.106Z,1003.09
2023-03-12T04:50:51.055Z,1003.10
2023-03-12T04:51:51.048Z,1003.05
2023-03-12T04:52:51.040Z,1003.06
2023-03-12T04:53:51.030Z,1003.03
2023-03-12T04:54:51.016Z,1002.98
2023-03-12T04:55:51.005Z,1002.97
2023-03-12T04:56:50.996Z,1002.90
2023-03-12T04:57:50.984Z,1002.90
2023-03-12T04:59:50.962Z,1002.90
2023-03-12T05:00:50.948Z,1002.87
2023-03-12T05:01:50.940Z,1002.80
2023-03-12T05:02:50.958Z,1002.78
2023-03-12T05:03:50.941Z,1002.77
2023-03-12T05:04:50.909Z,1002.76
2023-03-12T05:05:50.927Z,1002.74
2023-03-12T05:06:50.886Z,1002.75
2023-03-12T05:07:50.876Z,1002.70
2023-03-12T05:08:50.871Z,1002.66
2023-03-12T05:10:50.847Z,1002.66
2023-03-12T05:11:50.836Z,1002.59
2023-03-12T05:12:50.826Z,1002.59
2023-03-12T05:13:50.811Z,1002.58
2023-03-12T05:14:50.806Z,1002.60
2023-03-12T05:15:50.998Z,1002.59
2023-03-12T05:16:50.782Z,1002.62
2023-03-12T05:17:50.769Z,1002.59
2023-03-12T05:18:50.762Z,1002.56
2023-03-12T05:19:50.748Z,1002.59
2023-03-12T05:20:50.739Z,1002.54
2023-03-12T05:21:50.754Z,1002.53
2023-03-12T05:22:50.719Z,1002.50
2023-03-12T05:24:50.698Z,1002.48
2023-03-12T05:31:50.792Z,1002.49
2023-03-12T05:32:50.671Z,1002.55
2023-03-12T05:33:52.761Z,1002.57
2023-03-12T05:35:50.630Z,1002.52
2023-03-12T05:36:50.565Z,1002.54
2023-03-12T05:37:50.573Z,1002.53
2023-03-12T05:38:50.542Z,1002.53
2023-03-12T05:39:50.531Z,1002.59
2023-03-12T05:42:50.503Z,1002.61
2023-03-12T05:43:50.487Z,1002.58
2023-03-12T05:44:50.477Z,1002.54
2023-03-12T05:45:50.493Z,1002.47
2023-03-12T05:46:50.482Z,1002.38
2023-03-12T05:52:50.392Z,1002.34
2023-03-12T05:57:50.342Z,1002.25
2023-03-12T05:58:50.323Z,1002.23
2023-03-12T05:59:50.320Z,1002.14
2023-03-12T06:01:50.302Z,1002.06
2023-03-12T06:02:50.281Z,1002.11
2023-03-12T06:03:50.316Z,1002.10
2023-03-12T06:04:50.260Z,1002.05
2023-03-12T06:05:50.246Z,1002.05
2023-03-12T06:08:50.211Z,1001.99
2023-03-12T06:09:50.219Z,1001.98
2023-03-12T06:10:50.194Z,1001.93
2023-03-12T06:11:50.176Z,1001.94
2023-03-12T06:12:50.168Z,1001.88
2023-03-12T06:13:50.156Z,1001.86
2023-03-12T06:14:50.145Z,1001.85
2023-03-12T06:15:50.138Z,1001.80
2023-03-12T06:16:50.229Z,1001.81
2023-03-12T06:17:50.111Z,1001.80
2023-03-12T06:18:50.100Z,1001.77
2023-03-12T06:19:50.089Z,1001.76
2023-03-12T06:20:50.083Z,1001.77
2023-03-12T06:22:50.064Z,1001.82
2023-03-12T06:23:50.046Z,1001.88
2023-03-12T06:24:50.037Z,1001.84
2023-03-12T06:25:50.050Z,1001.88
2023-03-12T06:26:50.042Z,1001.83
2023-03-12T06:27:50.015Z,1001.81
2023-03-12T06:28:50.032Z,1001.79
2023-03-12T06:29:49.982Z,1001.78
2023-03-12T06:30:49.972Z,1001.77
2023-03-12T06:34:49.929Z,1001.77
2023-03-12T06:35:49.980Z,1001.80
2023-03-12T06:36:49.908Z,1001.86
2023-03-12T06:37:49.898Z,1001.85
2023-03-12T06:38:49.887Z,1001.87
2023-03-12T06:40:49.864Z,1001.85
2023-03-12T06:41:49.871Z,1001.88
2023-03-12T06:42:49.841Z,1001.89
2023-03-12T06:43:49.830Z,1001.83
2023-03-12T06:44:49.822Z,1001.80
2023-03-12T06:46:49.978Z,1001.75
2023-03-12T06:47:49.788Z,1001.79
2023-03-12T06:48:49.780Z,1001.74
2023-03-12T06:49:49.765Z,1001.71
2023-03-12T06:50:49.760Z,1001.66
2023-03-12T06:51:49.744Z,1001.68
2023-03-12T06:53:49.726Z,1001.69
2023-03-12T06:54:49.719Z,1001.67
2023-03-12T06:55:49.708Z,1001.72
2023-03-12T06:56:49.688Z,1001.70
2023-03-12T07:00:49.649Z,1001.73
2023-03-12T07:01:49.696Z,1001.74
2023-03-12T07:02:49.628Z,1001.80
2023-03-12T07:03:49.616Z,1001.84
2023-03-12T07:04:49.646Z,1001.80
2023-03-12T07:05:49.608Z,1001.76
2023-03-12T07:06:49.590Z,1001.78
2023-03-12T07:07:49.580Z,1001.79
2023-03-12T07:08:49.578Z,1001.83
2023-03-12T07:09:49.555Z,1001.76
2023-03-12T07:10:49.547Z,1001.73
2023-03-12T07:12:49.526Z,1001.74
2023-03-12T07:13:49.540Z,1001.72
2023-03-12T07:14:49.510Z,1001.71
2023-03-12T07:15:49.543Z,1001.70
2023-03-12T07:16:49.486Z,1001.68
2023-03-12T07:18:49.469Z,1001.79
2023-03-12T07:19:49.938Z,1001.76
2023-03-12T07:20:49.442Z,1001.80
2023-03-12T07:21:49.432Z,1001.80
2023-03-12T07:22:49.421Z,1001.78
2023-03-12T07:23:49.408Z,1001.78
2023-03-12T07:24:49.400Z,1001.71
2023-03-12T07:25:49.394Z,1001.78
2023-03-12T07:27:49.367Z,1001.75
2023-03-12T07:28:49.368Z,1001.72
2023-03-12T07:29:49.375Z,1001.69
2023-03-12T07:30:49.340Z,1001.67
2023-03-12T07:31:49.333Z,1001.66
2023-03-12T07:32:49.357Z,1001.60
2023-03-12T07:33:49.433Z,1001.65
2023-03-12T07:34:49.297Z,1001.62
2023-03-12T07:35:51.690Z,1001.64
2023-03-12T07:36:49.381Z,1001.62
2023-03-12T07:37:49.306Z,1001.56
2023-03-12T07:40:49.245Z,1001.60
2023-03-12T07:41:49.396Z,1001.67
2023-03-12T07:42:49.342Z,1001.63
2023-03-12T07:43:49.556Z,1001.53
2023-03-12T07:50:49.116Z,1001.42
2023-03-12T07:51:49.130Z,1001.42
2023-03-12T07:52:49.287Z,1001.42
2023-03-12T07:53:49.089Z,1001.45
2023-03-12T07:54:49.206Z,1001.44
2023-03-12T07:55:49.298Z,1001.49
2023-03-12T07:56:49.547Z,1001.50
2023-03-12T07:57:49.322Z,1001.51
2023-03-12T07:58:49.171Z,1001.45
2023-03-12T07:59:49.086Z,1001.46
2023-03-12T08:00:49.127Z,1001.49
2023-03-12T08:01:49.026Z,1001.42
2023-03-12T08:02:49.177Z,1001.47
2023-03-12T08:03:48.973Z,1001.42
2023-03-12T08:05:48.961Z,1001.35
2023-03-12T08:06:49.036Z,1001.37
2023-03-12T08:08:49.203Z,1001.29
2023-03-12T08:09:49.477Z,1001.25
2023-03-12T08:10:48.895Z,1001.27
2023-03-12T08:11:48.980Z,1001.27
2023-03-12T08:12:49.176Z,1001.23
2023-03-12T08:13:48.875Z,1001.24
2023-03-12T08:14:49.145Z,1001.26
2023-03-12T08:15:48.854Z,1001.23
2023-03-12T08:16:48.917Z,1001.26
2023-03-12T08:17:49.118Z,1001.21
2023-03-12T08:18:48.812Z,1001.22
2023-03-12T08:19:48.817Z,1001.16
2023-03-12T08:20:48.883Z,1001.23
2023-03-12T08:21:48.810Z,1001.20
2023-03-12T08:22:48.773Z,1001.23
2023-03-12T08:23:48.759Z,1001.18
2023-03-12T08:24:48.946Z,1001.19
2023-03-12T08:25:48.748Z,1001.17
2023-03-12T08:26:48.730Z,1001.17
2023-03-12T08:27:48.724Z,1001.20
2023-03-12T08:29:48.701Z,1001.16
2023-03-12T08:30:48.692Z,1001.21
2023-03-12T08:32:03.711Z,1001.23
2023-03-12T08:32:48.694Z,1001.18
2023-03-12T08:33:48.669Z,1001.28
2023-03-12T08:34:48.639Z,1001.24
2023-03-12T08:35:48.692Z,1001.23
2023-03-12T08:36:48.650Z,1001.18
2023-03-12T08:39:48.594Z,1001.20
2023-03-12T08:43:48.539Z,1001.19
2023-03-12T08:44:48.565Z,1001.20
2023-03-12T08:45:48.564Z,1001.16
2023-03-12T08:46:48.516Z,1001.15
2023-03-12T08:47:48.511Z,1001.15
2023-03-12T08:48:48.490Z,1001.20
2023-03-12T08:50:48.469Z,1001.15
2023-03-12T08:51:48.459Z,1001.10
2023-03-12T08:52:48.459Z,1001.11
2023-03-12T08:53:48.449Z,1001.06
2023-03-12T08:54:48.425Z,1001.04
2023-03-12T08:55:48.414Z,1001.06
2023-03-12T08:56:48.406Z,1000.98
2023-03-12T08:57:48.394Z,1001.02
2023-03-12T08:58:48.381Z,1001.00
2023-03-12T08:59:48.378Z,1000.97
2023-03-12T09:00:48.357Z,1000.97
2023-03-12T09:01:48.352Z,1000.91
2023-03-12T09:02:48.368Z,1000.96
2023-03-12T09:03:48.329Z,1001.00
2023-03-12T09:04:48.374Z,1000.99
2023-03-12T09:05:48.336Z,1000.94
2023-03-12T09:11:48.244Z,1000.96
2023-03-12T09:12:48.230Z,1000.95
2023-03-12T09:14:15.285Z,1000.91
2023-03-12T09:15:03.022Z,1000.93
2023-03-12T09:15:49.230Z,1000.96
2023-03-12T09:16:48.250Z,1000.95
2023-03-12T09:17:48.217Z,1000.94
2023-03-12T09:18:48.173Z,1000.93
2023-03-12T09:19:48.165Z,1000.90
2023-03-12T09:20:48.148Z,1000.90
2023-03-12T09:21:48.194Z,1000.87
2023-03-12T09:22:48.122Z,1000.90
2023-03-12T09:23:48.111Z,1000.88
2023-03-12T09:24:48.101Z,1000.82
2023-03-12T09:25:48.089Z,1000.86
2023-03-12T09:26:48.075Z,1000.77
2023-03-12T09:27:48.065Z,1000.80
2023-03-12T09:28:48.054Z,1000.79
2023-03-12T09:29:59.335Z,1000.90
2023-03-12T09:30:48.043Z,1000.85
2023-03-12T09:31:48.023Z,1000.86
2023-03-12T09:32:48.095Z,1000.92
2023-03-12T09:33:48.007Z,1000.95
2023-03-12T09:34:47.989Z,1000.98
2023-03-12T09:36:47.967Z,1000.96
2023-03-12T09:37:47.981Z,1000.97
2023-03-12T09:39:47.938Z,1001.02
2023-03-12T09:41:47.912Z,1001.03
2023-03-12T09:42:47.901Z,1001.04
2023-03-12T09:43:47.900Z,1001.04
2023-03-12T09:44:47.881Z,1001.04
2023-03-12T09:45:47.912Z,1001.02
2023-03-12T09:46:47.856Z,1001.04
2023-03-12T09:47:47.864Z,1001.07
2023-03-12T09:48:47.836Z,1001.16
2023-03-12T09:49:47.836Z,1001.13
2023-03-12T09:50:47.837Z,1001.11
2023-03-12T09:51:47.803Z,1001.15
2023-03-12T09:52:47.792Z,1001.10
2023-03-12T09:53:47.821Z,1001.11
2023-03-12T09:54:47.767Z,1001.11
2023-03-12T09:55:47.767Z,1001.05
2023-03-12T09:56:47.752Z,1001.14
2023-03-12T09:57:47.746Z,1001.13
2023-03-12T09:58:47.731Z,1001.10
2023-03-12T09:59:47.721Z,1001.13
2023-03-12T10:00:47.781Z,1001.11
2023-03-12T10:01:47.701Z,1001.04
2023-03-12T10:02:47.688Z,1001.07
2023-03-12T10:03:47.683Z,1001.04
2023-03-12T10:05:48.685Z,1001.14
2023-03-12T10:06:47.649Z,1001.12
2023-03-12T10:07:47.635Z,1001.13
2023-03-12T10:08:47.624Z,1001.18
2023-03-12T10:09:47.637Z,1001.11
2023-03-12T10:10:47.612Z,1001.20
2023-03-12T10:11:47.593Z,1001.24
2023-03-12T10:19:47.509Z,1001.28
2023-03-12T10:20:47.501Z,1001.22
2023-03-12T10:21:47.496Z,1001.18
2023-03-12T10:22:47.474Z,1001.13
2023-03-12T10:23:47.465Z,1001.13
2023-03-12T10:27:47.425Z,1001.01
2023-03-12T10:28:47.409Z,1001.04
2023-03-12T10:29:47.411Z,1000.99
2023-03-12T10:30:47.402Z,1001.00
2023-03-12T10:31:47.378Z,1001.07
2023-03-12T10:32:47.415Z,1001.12
2023-03-12T10:33:47.356Z,1001.14
2023-03-12T10:34:47.344Z,1001.08
2023-03-12T10:35:47.359Z,1001.15
2023-03-12T10:36:47.334Z,1001.16
2023-03-12T10:37:47.310Z,1001.12
2023-03-12T10:38:47.301Z,1001.20
2023-03-12T10:39:47.299Z,1001.19
2023-03-12T10:40:47.279Z,1001.19
2023-03-12T10:41:47.306Z,1001.20
2023-03-12T10:42:47.257Z,1001.20
2023-03-12T10:43:47.247Z,1001.15
2023-03-12T10:45:47.228Z,1001.20
2023-03-12T10:46:47.342Z,1001.25
2023-03-12T10:47:47.205Z,1001.18
2023-03-12T10:50:47.170Z,1001.38
2023-03-12T10:51:47.163Z,1001.29
2023-03-12T10:52:47.149Z,1001.31
2023-03-12T10:53:47.140Z,1001.32
2023-03-12T10:54:47.132Z,1001.29
2023-03-12T10:56:47.108Z,1001.40
2023-03-12T11:01:47.132Z,1001.45
2023-03-12T11:02:47.041Z,1001.41
2023-03-12T11:03:47.037Z,1001.41
2023-03-12T11:04:47.019Z,1001.52
2023-03-12T11:05:47.032Z,1001.47
2023-03-12T11:07:46.989Z,1001.42
2023-03-12T11:08:46.974Z,1001.37
2023-03-12T11:09:46.964Z,1001.43
2023-03-12T11:10:46.951Z,1001.41
2023-03-12T11:11:46.946Z,1001.47
2023-03-12T11:12:46.930Z,1001.44
2023-03-12T11:14:46.914Z,1001.46
2023-03-12T11:15:46.933Z,1001.49
2023-03-12T11:19:46.854Z,1001.47
2023-03-12T11:20:46.849Z,1001.42
2023-03-12T11:21:46.836Z,1001.46
2023-03-12T11:22:46.829Z,1001.36
2023-03-12T11:23:46.810Z,1001.35
2023-03-12T11:24:46.797Z,1001.32
2023-03-12T11:25:46.792Z,1001.34
2023-03-12T11:26:46.780Z,1001.28
2023-03-12T11:27:46.773Z,1001.35
2023-03-12T11:29:46.849Z,1001.34
2023-03-12T11:30:46.794Z,1001.28
2023-03-12T11:31:47.435Z,1001.31
2023-03-12T11:32:46.724Z,1001.29
2023-03-12T11:33:46.698Z,1001.33
2023-03-12T11:35:46.760Z,1001.24
2023-03-12T11:36:46.671Z,1001.22
2023-03-12T11:37:46.658Z,1001.26
2023-03-12T11:38:46.647Z,1001.26
2023-03-12T11:39:46.635Z,1001.19
2023-03-12T11:40:46.622Z,1001.21
2023-03-12T11:41:46.614Z,1001.30
2023-03-12T11:42:46.603Z,1001.19
2023-03-12T11:43:46.589Z,1001.22
2023-03-12T11:44:46.578Z,1001.23
2023-03-12T11:45:46.595Z,1001.19
2023-03-12T11:46:46.641Z,1001.22
2023-03-12T11:47:46.632Z,1001.18
2023-03-12T11:48:46.642Z,1001.19
2023-03-12T11:49:48.579Z,1001.16
2023-03-12T11:50:46.519Z,1001.18
2023-03-12T11:51:46.513Z,1001.12
2023-03-12T11:53:46.483Z,1001.18
2023-03-12T11:55:46.468Z,1001.17
2023-03-12T11:56:46.460Z,1001.17
2023-03-12T11:57:46.451Z,1001.22
2023-03-12T11:59:46.418Z,1001.17
2023-03-12T12:01:46.486Z,1001.16
2023-03-12T12:02:46.403Z,1001.14
2023-03-12T12:03:46.375Z,1001.14
2023-03-12T12:04:46.376Z,1001.14
2023-03-12T12:09:46.309Z,1001.09
2023-03-12T12:10:46.297Z,1001.05
2023-03-12T12:11:46.294Z,1001.09
2023-03-12T12:12:46.275Z,1001.13
2023-03-12T12:13:46.287Z,1001.14
2023-03-12T12:14:46.253Z,1001.12
2023-03-12T12:15:46.245Z,1001.19
2023-03-12T12:16:46.323Z,1001.13
2023-03-12T12:17:46.246Z,1001.15
2023-03-12T12:19:46.200Z,1001.14
2023-03-12T12:20:46.187Z,1001.15
2023-03-12T12:21:46.178Z,1001.12
2023-03-12T12:22:46.167Z,1001.12
2023-03-12T12:23:46.162Z,1001.11
2023-03-12T12:24:46.144Z,1001.11
2023-03-12T12:25:46.132Z,1001.11
2023-03-12T12:26:46.130Z,1001.08
2023-03-12T12:27:46.113Z,1001.10
2023-03-12T12:28:46.103Z,1001.10
2023-03-12T12:29:46.093Z,1001.09
2023-03-12T12:30:46.098Z,1001.07
2023-03-12T12:32:46.136Z,1001.11
2023-03-12T12:34:46.042Z,1001.01
2023-03-12T12:35:46.063Z,1000.97
2023-03-12T12:36:46.013Z,1000.94
2023-03-12T12:38:45.992Z,1000.95
2023-03-12T12:39:47.094Z,1000.92
2023-03-12T12:41:45.971Z,1000.92
2023-03-12T12:42:45.952Z,1000.88
2023-03-12T12:43:45.952Z,1000.84
2023-03-12T12:44:45.926Z,1000.74
2023-03-12T12:45:46.013Z,1000.77
2023-03-12T12:46:45.903Z,1000.78
2023-03-12T12:47:45.904Z,1000.83
2023-03-12T12:48:45.881Z,1000.84
2023-03-12T12:49:45.905Z,1000.85
2023-03-12T12:50:45.866Z,1000.87
2023-03-12T12:51:45.849Z,1000.82
2023-03-12T12:52:45.842Z,1000.86
2023-03-12T12:53:45.830Z,1000.84
2023-03-12T12:55:45.810Z,1000.78
2023-03-12T12:58:45.772Z,1000.76
2023-03-12T12:59:45.765Z,1000.75
2023-03-12T13:01:45.784Z,1000.79
2023-03-12T13:05:45.716Z,1000.70
2023-03-12T13:06:45.688Z,1000.75
2023-03-12T13:07:45.677Z,1000.76
2023-03-12T13:08:45.665Z,1000.78
2023-03-12T13:09:45.659Z,1000.70
2023-03-12T13:10:57.087Z,1000.73
2023-03-12T13:11:45.635Z,1000.71
2023-03-12T13:12:45.624Z,1000.73
2023-03-12T13:13:45.616Z,1000.71
2023-03-12T13:14:45.604Z,1000.70
2023-03-12T13:15:45.634Z,1000.72
2023-03-12T13:16:45.579Z,1000.68
2023-03-12T13:17:45.567Z,1000.69
2023-03-12T13:18:45.557Z,1000.70
2023-03-12T13:20:46.566Z,1000.66
2023-03-12T13:21:45.566Z,1000.69
2023-03-12T13:22:45.516Z,1000.63
2023-03-12T13:23:45.502Z,1000.61
2023-03-12T13:27:45.464Z,1000.64
2023-03-12T13:28:45.448Z,1000.56
2023-03-12T13:29:45.436Z,1000.58
2023-03-12T13:30:45.477Z,1000.54
2023-03-12T13:31:45.418Z,1000.52
2023-03-12T13:34:45.478Z,1000.45
2023-03-12T13:35:45.423Z,1000.27
2023-03-12T13:36:45.364Z,1000.28
2023-03-12T13:38:45.346Z,1000.28
2023-03-12T13:39:45.330Z,1000.29
2023-03-12T13:40:45.324Z,1000.26
2023-03-12T13:41:45.305Z,1000.28
2023-03-12T13:42:45.322Z,1000.33
2023-03-12T13:43:45.288Z,1000.29
2023-03-12T13:44:45.275Z,1000.22
2023-03-12T13:45:45.263Z,1000.22
2023-03-12T13:49:45.236Z,1000.27
2023-03-12T13:50:45.208Z,1000.24
2023-03-12T13:51:45.195Z,1000.25
2023-03-12T13:52:45.185Z,1000.23
2023-03-12T13:53:45.215Z,1000.23
2023-03-12T13:54:45.164Z,1000.21
2023-03-12T13:55:45.150Z,1000.17
2023-03-12T13:56:45.150Z,1000.21
2023-03-12T14:01:45.151Z,1000.17
2023-03-12T14:02:45.073Z,1000.18
2023-03-12T14:03:45.072Z,1000.14
2023-03-12T14:04:45.141Z,1000.13
2023-03-12T14:05:45.039Z,1000.10
2023-03-12T14:06:45.030Z,1000.12
2023-03-12T14:07:45.019Z,1000.07
2023-03-12T14:08:45.024Z,1000.09
2023-03-12T14:09:45.023Z,1000.02
2023-03-12T14:10:44.986Z,1000.06
2023-03-12T14:13:44.952Z,1000.12
2023-03-12T14:14:44.957Z,1000.06
2023-03-12T14:15:44.966Z,1000.11
2023-03-12T14:16:44.921Z,1000.06
2023-03-12T14:17:44.909Z,1000.00
2023-03-12T14:18:44.897Z,1000.05
2023-03-12T14:19:44.885Z,1000.00
2023-03-12T14:20:44.877Z,1000.05
2023-03-12T14:21:44.864Z,1000.02
2023-03-12T14:22:44.868Z,999.96
2023-03-12T14:23:44.847Z,1000.05
2023-03-12T14:24:44.830Z,1000.07
2023-03-12T14:25:44.845Z,1000.02
2023-03-12T14:26:44.815Z,1000.09
2023-03-12T14:27:44.798Z,1000.12
2023-03-12T14:28:44.791Z,1000.16
2023-03-12T14:29:44.779Z,1000.12
2023-03-12T14:30:44.826Z,1000.08
2023-03-12T14:31:44.755Z,1000.07
2023-03-12T14:32:44.785Z,1000.06
2023-03-12T14:33:44.729Z,1000.05
2023-03-12T14:34:44.724Z,999.98
2023-03-12T14:35:44.818Z,1000.00
2023-03-12T14:36:44.703Z,1000.09
2023-03-12T14:37:44.688Z,1000.14
2023-03-12T14:38:44.682Z,1000.13
2023-03-12T14:39:44.677Z,1000.12
2023-03-12T14:40:44.671Z,1000.22
2023-03-12T14:41:44.669Z,1000.19
2023-03-12T14:42:44.636Z,1000.24
2023-03-12T14:43:44.622Z,1000.22
2023-03-12T14:44:44.616Z,1000.29
2023-03-12T14:45:44.599Z,1000.29
2023-03-12T14:46:44.666Z,1000.33
2023-03-12T14:47:44.583Z,1000.26
2023-03-12T14:48:44.569Z,1000.30
2023-03-12T14:49:44.556Z,1000.28
2023-03-12T14:50:44.571Z,1000.27
2023-03-12T14:51:44.581Z,1000.23
2023-03-12T14:52:44.554Z,1000.31
2023-03-12T14:53:44.515Z,1000.30
2023-03-12T14:54:44.503Z,1000.34
2023-03-12T14:55:44.498Z,1000.42
2023-03-12T14:56:44.482Z,1000.39
2023-03-12T14:57:44.492Z,1000.33
2023-03-12T14:59:44.447Z,1000.31
2023-03-12T15:00:44.439Z,1000.27
2023-03-12T15:01:44.462Z,1000.32
2023-03-12T15:02:44.413Z,1000.31
2023-03-12T15:03:44.405Z,1000.32
2023-03-12T15:05:44.379Z,1000.29
2023-03-12T15:06:44.377Z,1000.37
2023-03-12T15:07:44.362Z,1000.37
2023-03-12T15:09:44.335Z,1000.43
2023-03-12T15:10:44.324Z,1000.42
2023-03-12T15:11:44.311Z,1000.43
2023-03-12T15:12:44.302Z,1000.39
2023-03-12T15:14:44.280Z,1000.40
2023-03-12T15:16:44.274Z,1000.39
2023-03-12T15:17:44.248Z,1000.40
2023-03-12T15:18:44.235Z,1000.35
2023-03-12T15:19:44.224Z,1000.39
2023-03-12T15:20:44.215Z,1000.39
2023-03-12T15:24:44.174Z,1000.48
2023-03-12T15:25:44.157Z,1000.50